Aviation Digital Data Service (ADDS)

Output produced by TAFs form (1628 UTC 21 December 2014)
found at http://www.aviationweather.gov/adds/tafs/
 
KALB 211434Z 2115/2212 01003KT 6SM -SHSN BR SCT020 OVC030 
     TEMPO 2115/2117 2SM -SHSN BR BKN015 OVC025 
     FM211900 35003KT P6SM SCT025 OVC035 
     FM212300 00000KT P6SM BKN045